createdAt,value
2023-03-05T00:00:19.653Z,5.43
2023-03-05T00:03:23.553Z,6.90
2023-03-05T00:06:28.886Z,4.60
2023-03-05T00:09:32.231Z,4.85
2023-03-05T00:12:37.732Z,5.12
2023-03-05T00:15:42.306Z,4.40
2023-03-05T00:18:45.281Z,5.30
2023-03-05T00:21:48.520Z,5.57
2023-03-05T00:24:51.877Z,5.20
2023-03-05T00:27:55.806Z,4.00
2023-03-05T00:31:03.367Z,4.90
2023-03-05T00:34:09.676Z,6.45
2023-03-05T00:37:12.400Z,5.53
2023-03-05T00:40:38.079Z,6.25
2023-03-05T00:43:41.787Z,7.47
2023-03-05T00:46:45.432Z,5.53
2023-03-05T00:49:49.056Z,3.62
2023-03-05T00:52:53.140Z,4.37
2023-03-05T00:55:59.178Z,5.12
2023-03-05T00:59:02.812Z,4.30
2023-03-05T01:02:05.691Z,5.12
2023-03-05T01:05:28.969Z,4.87
2023-03-05T01:08:32.049Z,5.05
2023-03-05T01:11:35.284Z,4.25
2023-03-05T01:14:39.064Z,5.25
2023-03-05T01:17:42.344Z,5.28
2023-03-05T01:21:05.545Z,4.72
2023-03-05T01:24:09.255Z,5.30
2023-03-05T01:27:12.310Z,4.93
2023-03-05T01:30:17.435Z,4.72
2023-03-05T01:33:20.589Z,4.62
2023-03-05T01:36:25.259Z,5.87
2023-03-05T01:39:28.461Z,4.87
2023-03-05T01:42:31.743Z,4.05
2023-03-05T01:45:34.960Z,4.97
2023-03-05T01:48:39.166Z,5.30
2023-03-05T01:51:56.504Z,4.75
2023-03-05T01:55:04.327Z,5.15
2023-03-05T01:58:27.085Z,4.80
2023-03-05T02:01:39.856Z,4.78
2023-03-05T02:04:49.243Z,4.45
2023-03-05T02:07:51.908Z,4.80
2023-03-05T02:10:57.339Z,5.05
2023-03-05T02:14:02.926Z,4.90
2023-03-05T02:17:06.492Z,5.30
2023-03-05T02:20:31.022Z,5.15
2023-03-05T02:23:36.866Z,4.28
2023-03-05T02:26:40.025Z,5.12
2023-03-05T02:29:45.888Z,4.93
2023-03-05T02:32:48.829Z,4.70
2023-03-05T02:35:52.276Z,4.97
2023-03-05T02:38:57.145Z,5.03
2023-03-05T02:42:00.882Z,5.07
2023-03-05T02:45:05.097Z,4.65
2023-03-05T02:48:08.865Z,5.37
2023-03-05T02:51:12.066Z,5.18
2023-03-05T02:54:15.318Z,5.25
2023-03-05T02:57:19.429Z,5.80
2023-03-05T03:00:23.506Z,4.35
2023-03-05T03:03:26.626Z,5.20
2023-03-05T03:06:29.747Z,4.28
2023-03-05T03:09:36.017Z,5.55
2023-03-05T03:12:44.600Z,4.75
2023-03-05T03:15:47.356Z,5.10
2023-03-05T03:18:50.440Z,5.15
2023-03-05T03:21:55.077Z,5.22
2023-03-05T03:24:58.612Z,5.00
2023-03-05T03:28:01.423Z,5.32
2023-03-05T03:31:13.137Z,4.87
2023-03-05T03:34:17.902Z,4.07
2023-03-05T03:37:21.116Z,5.07
2023-03-05T03:40:24.623Z,5.55
2023-03-05T03:43:28.073Z,5.05
2023-03-05T03:46:30.971Z,4.03
2023-03-05T03:49:34.937Z,5.05
2023-03-05T03:52:37.866Z,4.95
2023-03-05T03:55:42.970Z,5.37
2023-03-05T03:58:52.140Z,4.30
2023-03-05T04:01:55.387Z,5.93
2023-03-05T04:04:58.910Z,5.22
2023-03-05T04:08:01.953Z,5.40
2023-03-05T04:11:05.441Z,4.55
2023-03-05T04:14:08.296Z,5.87
2023-03-05T04:17:12.279Z,5.18
2023-03-05T04:20:15.810Z,4.85
2023-03-05T04:23:19.073Z,5.62
2023-03-05T04:26:21.989Z,4.93
2023-03-05T04:29:25.095Z,5.28
2023-03-05T04:32:30.017Z,5.47
2023-03-05T04:35:33.129Z,5.00
2023-03-05T04:38:36.210Z,5.10
2023-03-05T04:41:39.760Z,6.00
2023-03-05T04:44:44.256Z,5.22
2023-03-05T04:47:47.484Z,5.20
2023-03-05T04:50:50.885Z,5.37
2023-03-05T04:53:54.201Z,5.05
2023-03-05T04:56:58.569Z,5.20
2023-03-05T05:00:01.989Z,5.40
2023-03-05T05:03:06.324Z,5.05
2023-03-05T05:06:09.758Z,5.32
2023-03-05T05:09:12.770Z,5.95
2023-03-05T05:12:15.828Z,4.40
2023-03-05T05:15:18.774Z,5.60
2023-03-05T05:18:22.843Z,5.15
2023-03-05T05:21:26.461Z,5.45
2023-03-05T05:24:29.918Z,5.40
2023-03-05T05:27:33.760Z,5.32
2023-03-05T05:30:37.429Z,5.68
2023-03-05T05:33:41.424Z,5.10
2023-03-05T05:36:45.564Z,4.95
2023-03-05T05:39:50.460Z,5.95
2023-03-05T05:42:54.107Z,5.82
2023-03-05T05:46:09.760Z,5.80
2023-03-05T05:49:14.410Z,5.80
2023-03-05T05:52:22.843Z,5.25
2023-03-05T05:55:26.212Z,5.87
2023-03-05T05:58:32.621Z,6.10
2023-03-05T06:01:36.300Z,5.87
2023-03-05T06:04:43.251Z,6.15
2023-03-05T06:07:46.756Z,5.65
2023-03-05T06:10:56.192Z,6.32
2023-03-05T06:13:59.017Z,6.43
2023-03-05T06:17:03.200Z,6.70
2023-03-05T06:20:07.316Z,5.60
2023-03-05T06:23:10.812Z,5.82
2023-03-05T06:26:16.427Z,5.78
2023-03-05T06:29:19.691Z,6.28
2023-03-05T06:32:23.365Z,8.18
2023-03-05T06:35:26.985Z,7.15
2023-03-05T06:38:29.840Z,7.85
2023-03-05T06:41:33.730Z,7.07
2023-03-05T06:44:40.808Z,6.30
2023-03-05T06:48:04.302Z,6.47
2023-03-05T06:51:14.725Z,6.00
2023-03-05T06:54:18.329Z,6.95
2023-03-05T06:57:45.752Z,6.87
2023-03-05T07:00:58.795Z,6.45
2023-03-05T07:04:04.498Z,5.65
2023-03-05T07:07:07.575Z,6.85
2023-03-05T07:10:19.145Z,6.95
2023-03-05T07:13:22.592Z,6.62
2023-03-05T07:16:34.870Z,6.68
2023-03-05T07:19:46.600Z,6.30
2023-03-05T07:22:53.234Z,7.70
2023-03-05T07:25:56.381Z,6.62
2023-03-05T07:29:39.028Z,6.97
2023-03-05T07:32:42.348Z,6.72
2023-03-05T07:35:45.139Z,6.20
2023-03-05T07:39:08.402Z,7.22
2023-03-05T07:42:31.681Z,6.82
2023-03-05T07:45:44.254Z,6.28
2023-03-05T07:48:47.464Z,6.65
2023-03-05T07:51:51.190Z,7.00
2023-03-05T07:54:53.919Z,7.43
2023-03-05T07:57:58.657Z,7.55
2023-03-05T08:01:01.790Z,7.28
2023-03-05T08:05:05.094Z,7.32
2023-03-05T08:08:12.430Z,7.35
2023-03-05T08:11:37.334Z,6.75
2023-03-05T08:14:45.718Z,8.13
2023-03-05T08:18:08.982Z,7.22
2023-03-05T08:21:55.008Z,7.65
2023-03-05T08:25:07.068Z,6.95
2023-03-05T08:28:29.955Z,6.80
2023-03-05T08:31:53.811Z,6.80
2023-03-05T08:35:16.548Z,6.60
2023-03-05T08:38:40.777Z,6.50
2023-03-05T08:42:08.587Z,6.93
2023-03-05T08:45:22.049Z,6.43
2023-03-05T08:48:44.913Z,6.97
2023-03-05T08:51:56.652Z,6.35
2023-03-05T08:55:00.637Z,6.10
2023-03-05T08:58:04.529Z,5.43
2023-03-05T09:01:10.375Z,6.87
2023-03-05T09:04:53.669Z,6.55
2023-03-05T09:07:56.560Z,6.20
2023-03-05T09:11:42.146Z,5.78
2023-03-05T09:15:12.962Z,7.30
2023-03-05T09:18:36.949Z,7.70
2023-03-05T09:21:49.405Z,6.28
2023-03-05T09:24:52.840Z,6.18
2023-03-05T09:27:55.630Z,6.82
2023-03-05T09:31:03.993Z,5.85
2023-03-05T09:34:08.371Z,7.45
2023-03-05T09:37:12.006Z,7.15
2023-03-05T09:40:19.549Z,6.70
2023-03-05T09:43:48.059Z,6.45
2023-03-05T09:47:22.087Z,6.22
2023-03-05T09:50:39.126Z,5.25
2023-03-05T09:53:47.862Z,5.75
2023-03-05T09:57:24.196Z,5.90
2023-03-05T10:00:51.203Z,5.25
2023-03-05T10:07:16.683Z,5.35
2023-03-05T10:10:47.627Z,6.32
2023-03-05T10:17:34.954Z,5.35
2023-03-05T10:21:06.609Z,5.70
2023-03-05T10:24:22.440Z,5.97
2023-03-05T10:28:01.895Z,5.70
2023-03-05T10:31:13.061Z,5.70
2023-03-05T10:34:34.520Z,5.28
2023-03-05T10:38:11.627Z,5.20
2023-03-05T10:41:49.615Z,5.32
2023-03-05T10:45:01.229Z,5.37
2023-03-05T10:48:29.061Z,5.60
2023-03-05T10:51:48.475Z,4.85
2023-03-05T10:54:51.412Z,5.30
2023-03-05T10:57:55.024Z,5.78
2023-03-05T11:01:13.096Z,5.40
2023-03-05T11:04:29.001Z,5.07
2023-03-05T11:07:35.282Z,5.25
2023-03-05T11:10:38.575Z,3.80
2023-03-05T11:13:55.757Z,4.78
2023-03-05T11:17:03.983Z,4.22
2023-03-05T11:20:26.572Z,5.40
2023-03-05T11:23:31.929Z,4.00
2023-03-05T11:26:34.765Z,4.53
2023-03-05T11:29:48.396Z,4.22
2023-03-05T11:33:10.265Z,4.72
2023-03-05T11:36:23.833Z,4.68
2023-03-05T11:39:30.438Z,5.10
2023-03-05T11:43:16.715Z,4.65
2023-03-05T11:46:21.928Z,4.50
2023-03-05T11:49:28.552Z,4.85
2023-03-05T11:52:39.114Z,4.07
2023-03-05T11:55:45.411Z,4.72
2023-03-05T11:59:00.279Z,4.30
2023-03-05T12:02:03.970Z,5.10
2023-03-05T12:05:07.867Z,4.10
2023-03-05T12:08:15.621Z,4.60
2023-03-05T12:11:27.632Z,4.25
2023-03-05T12:14:42.252Z,5.20
2023-03-05T12:18:09.005Z,5.97
2023-03-05T12:21:23.816Z,5.03
2023-03-05T12:24:28.339Z,4.28
2023-03-05T12:27:39.423Z,5.37
2023-03-05T12:30:43.669Z,4.90
2023-03-05T12:33:46.719Z,4.80
2023-03-05T12:36:49.718Z,5.18
2023-03-05T12:40:12.723Z,5.25
2023-03-05T12:43:33.902Z,5.43
2023-03-05T12:46:58.167Z,4.68
2023-03-05T12:50:02.130Z,5.15
2023-03-05T12:53:11.239Z,5.20
2023-03-05T12:56:22.315Z,6.07
2023-03-05T12:59:39.057Z,5.12
2023-03-05T13:02:45.960Z,5.30
2023-03-05T13:05:58.271Z,5.87
2023-03-05T13:09:08.011Z,5.32
2023-03-05T13:12:14.052Z,5.35
2023-03-05T13:15:17.383Z,5.28
2023-03-05T13:18:28.838Z,5.40
2023-03-05T13:21:33.251Z,5.30
2023-03-05T13:24:36.152Z,5.28
2023-03-05T13:27:39.335Z,5.00
2023-03-05T13:31:12.254Z,5.37
2023-03-05T13:34:47.310Z,4.87
2023-03-05T13:37:50.880Z,5.60
2023-03-05T13:41:27.247Z,7.37
2023-03-05T13:44:31.217Z,6.43
2023-03-05T13:47:56.067Z,5.70
2023-03-05T13:50:59.524Z,5.32
2023-03-05T13:54:04.353Z,6.07
2023-03-05T13:57:08.628Z,6.05
2023-03-05T14:00:35.098Z,5.90
2023-03-05T14:03:40.561Z,5.72
2023-03-05T14:06:49.312Z,5.72
2023-03-05T14:09:56.689Z,5.80
2023-03-05T14:13:23.713Z,9.13
